sensor_id;sensor_type;location;lat;lon;timestamp;P1;durP1;ratioP1;P2;durP2;ratioP2
71821;SDS011;64096;52.548;13.406;2023-06-19T06:03:25;9.90;;;8.95;;
71821;SDS011;64096;52.548;13.406;2023-06-19T06:05:52;11.98;;;10.88;;
71821;SDS011;64096;52.548;13.406;2023-06-19T06:08:18;10.90;;;9.68;;
71821;SDS011;64096;52.548;13.406;2023-06-19T06:10:44;11.23;;;10.23;;
71821;SDS011;64096;52.548;13.406;2023-06-19T06:13:10;10.80;;;9.80;;
71821;SDS011;64096;52.548;13.406;2023-06-19T06:15:36;11.45;;;10.35;;
71821;SDS011;64096;52.548;13.406;2023-06-19T06:18:02;10.68;;;9.60;;
71821;SDS011;64096;52.548;13.406;2023-06-19T06:20:29;11.05;;;10.02;;
71821;SDS011;64096;52.548;13.406;2023-06-19T06:22:55;11.65;;;10.55;;
71821;SDS011;64096;52.548;13.406;2023-06-19T06:25:21;10.00;;;9.05;;
71821;SDS011;64096;52.548;13.406;2023-06-19T06:27:48;9.20;;;8.30;;
71821;SDS011;64096;52.548;13.406;2023-06-19T06:30:15;8.95;;;8.05;;
71821;SDS011;64096;52.548;13.406;2023-06-19T06:32:41;9.00;;;8.10;;
71821;SDS011;64096;52.548;13.406;2023-06-19T06:35:07;9.95;;;8.95;;
71821;SDS011;64096;52.548;13.406;2023-06-19T06:37:33;10.30;;;9.20;;
71821;SDS011;64096;52.548;13.406;2023-06-19T06:40:00;10.02;;;9.02;;
71821;SDS011;64096;52.548;13.406;2023-06-19T06:42:26;9.60;;;8.60;;
71821;SDS011;64096;52.548;13.406;2023-06-19T06:44:52;10.43;;;9.43;;
71821;SDS011;64096;52.548;13.406;2023-06-19T06:47:18;12.85;;;11.57;;
71821;SDS011;64096;52.548;13.406;2023-06-19T06:49:44;10.93;;;9.82;;
71821;SDS011;64096;52.548;13.406;2023-06-19T06:52:10;10.00;;;9.05;;
71821;SDS011;64096;52.548;13.406;2023-06-19T06:54:37;10.13;;;9.20;;
71821;SDS011;64096;52.548;13.406;2023-06-19T06:57:03;11.45;;;10.35;;
71821;SDS011;64096;52.548;13.406;2023-06-19T06:59:30;10.35;;;9.30;;
71821;SDS011;64096;52.548;13.406;2023-06-19T07:01:56;10.85;;;9.85;;
71821;SDS011;64096;52.548;13.406;2023-06-19T07:04:22;9.75;;;8.77;;
71821;SDS011;64096;52.548;13.406;2023-06-19T07:06:48;9.52;;;8.63;;
71821;SDS011;64096;52.548;13.406;2023-06-19T07:09:15;8.65;;;7.85;;
71821;SDS011;64096;52.548;13.406;2023-06-19T07:11:41;9.80;;;8.80;;
71821;SDS011;64096;52.548;13.406;2023-06-19T07:14:07;10.13;;;9.15;;
71821;SDS011;64096;52.548;13.406;2023-06-19T07:16:33;9.70;;;8.70;;
71821;SDS011;64096;52.548;13.406;2023-06-19T07:18:59;11.05;;;9.95;;
71821;SDS011;64096;52.548;13.406;2023-06-19T07:21:25;11.82;;;10.70;;
71821;SDS011;64096;52.548;13.406;2023-06-19T07:23:53;12.05;;;10.95;;
71821;SDS011;64096;52.548;13.406;2023-06-19T07:26:20;10.85;;;9.85;;
71821;SDS011;64096;52.548;13.406;2023-06-19T07:28:46;11.10;;;10.10;;
71821;SDS011;64096;52.548;13.406;2023-06-19T07:31:12;10.68;;;9.57;;
71821;SDS011;64096;52.548;13.406;2023-06-19T07:33:38;9.60;;;8.68;;
71821;SDS011;64096;52.548;13.406;2023-06-19T07:36:04;9.95;;;8.95;;
71821;SDS011;64096;52.548;13.406;2023-06-19T07:38:31;9.07;;;8.18;;
71821;SDS011;64096;52.548;13.406;2023-06-19T07:40:57;8.73;;;7.93;;
71821;SDS011;64096;52.548;13.406;2023-06-19T07:43:23;9.23;;;8.32;;
71821;SDS011;64096;52.548;13.406;2023-06-19T07:45:49;13.90;;;12.60;;
71821;SDS011;64096;52.548;13.406;2023-06-19T07:48:15;19.10;;;17.30;;
71821;SDS011;64096;52.548;13.406;2023-06-19T07:50:41;19.55;;;17.60;;
71821;SDS011;64096;52.548;13.406;2023-06-19T07:53:07;19.95;;;18.05;;
71821;SDS011;64096;52.548;13.406;2023-06-19T07:55:33;35.83;;;32.45;;
71821;SDS011;64096;52.548;13.406;2023-06-19T07:58:00;25.00;;;22.60;;
71821;SDS011;64096;52.548;13.406;2023-06-19T08:00:26;11.95;;;10.80;;
71821;SDS011;64096;52.548;13.406;2023-06-19T08:02:52;10.10;;;9.18;;
71821;SDS011;64096;52.548;13.406;2023-06-19T08:05:18;9.98;;;9.07;;
71821;SDS011;64096;52.548;13.406;2023-06-19T08:07:45;9.48;;;8.57;;
71821;SDS011;64096;52.548;13.406;2023-06-19T08:10:11;10.55;;;9.55;;
71821;SDS011;64096;52.548;13.406;2023-06-19T08:12:37;10.30;;;9.27;;
71821;SDS011;64096;52.548;13.406;2023-06-19T08:15:03;8.40;;;7.60;;
71821;SDS011;64096;52.548;13.406;2023-06-19T08:17:29;9.98;;;8.98;;
71821;SDS011;64096;52.548;13.406;2023-06-19T08:19:55;10.15;;;9.13;;
71821;SDS011;64096;52.548;13.406;2023-06-19T08:22:21;10.07;;;9.07;;
71821;SDS011;64096;52.548;13.406;2023-06-19T08:24:48;10.13;;;9.13;;
71821;SDS011;64096;52.548;13.406;2023-06-19T08:27:14;8.32;;;7.53;;
71821;SDS011;64096;52.548;13.406;2023-06-19T08:29:40;10.35;;;9.35;;
71821;SDS011;64096;52.548;13.406;2023-06-19T08:32:08;9.93;;;8.93;;
71821;SDS011;64096;52.548;13.406;2023-06-19T08:34:34;8.70;;;7.88;;
71821;SDS011;64096;52.548;13.406;2023-06-19T08:37:01;9.70;;;8.70;;
71821;SDS011;64096;52.548;13.406;2023-06-19T08:39:27;8.90;;;8.00;;
71821;SDS011;64096;52.548;13.406;2023-06-19T08:41:53;8.40;;;7.60;;
71821;SDS011;64096;52.548;13.406;2023-06-19T08:44:19;8.25;;;7.45;;
71821;SDS011;64096;52.548;13.406;2023-06-19T08:46:45;8.95;;;8.05;;
71821;SDS011;64096;52.548;13.406;2023-06-19T08:49:12;9.27;;;8.27;;
71821;SDS011;64096;52.548;13.406;2023-06-19T08:51:39;9.85;;;8.95;;
71821;SDS011;64096;52.548;13.406;2023-06-19T08:54:06;9.73;;;8.82;;
71821;SDS011;64096;52.548;13.406;2023-06-19T08:56:33;10.88;;;8.70;;
71821;SDS011;64096;52.548;13.406;2023-06-19T08:59:15;9.73;;;8.82;;
71821;SDS011;64096;52.548;13.406;2023-06-19T09:01:49;9.55;;;8.65;;
71821;SDS011;64096;52.548;13.406;2023-06-19T09:04:19;9.82;;;8.82;;
71821;SDS011;64096;52.548;13.406;2023-06-19T09:06:52;10.23;;;9.20;;
71821;SDS011;64096;52.548;13.406;2023-06-19T09:09:22;10.68;;;9.68;;
71821;SDS011;64096;52.548;13.406;2023-06-19T09:12:01;9.68;;;8.77;;
71821;SDS011;64096;52.548;13.406;2023-06-19T09:14:37;10.88;;;9.88;;
71821;SDS011;64096;52.548;13.406;2023-06-19T09:17:04;10.15;;;9.02;;
71821;SDS011;64096;52.548;13.406;2023-06-19T09:19:35;9.90;;;8.93;;
71821;SDS011;64096;52.548;13.406;2023-06-19T09:22:02;9.63;;;8.73;;
71821;SDS011;64096;52.548;13.406;2023-06-19T09:24:35;10.57;;;9.57;;
71821;SDS011;64096;52.548;13.406;2023-06-19T09:27:06;10.25;;;9.23;;
71821;SDS011;64096;52.548;13.406;2023-06-19T09:29:35;10.23;;;9.18;;
71821;SDS011;64096;52.548;13.406;2023-06-19T09:32:13;10.48;;;9.48;;
71821;SDS011;64096;52.548;13.406;2023-06-19T09:34:39;10.43;;;9.40;;
71821;SDS011;64096;52.548;13.406;2023-06-19T09:37:06;10.52;;;9.50;;
71821;SDS011;64096;52.548;13.406;2023-06-19T09:39:32;9.95;;;8.95;;
71821;SDS011;64096;52.548;13.406;2023-06-19T09:41:59;9.63;;;8.73;;
71821;SDS011;64096;52.548;13.406;2023-06-19T09:44:29;9.13;;;8.25;;
71821;SDS011;64096;52.548;13.406;2023-06-19T09:46:57;8.57;;;7.68;;
71821;SDS011;64096;52.548;13.406;2023-06-19T09:49:26;13.50;;;12.15;;
71821;SDS011;64096;52.548;13.406;2023-06-19T09:51:54;11.48;;;10.30;;
71821;SDS011;64096;52.548;13.406;2023-06-19T09:54:20;9.55;;;8.65;;
71821;SDS011;64096;52.548;13.406;2023-06-19T09:56:46;9.10;;;8.20;;
71821;SDS011;64096;52.548;13.406;2023-06-19T09:59:16;9.07;;;8.18;;
71821;SDS011;64096;52.548;13.406;2023-06-19T10:01:43;8.82;;;8.02;;
71821;SDS011;64096;52.548;13.406;2023-06-19T10:04:10;9.50;;;8.50;;
71821;SDS011;64096;52.548;13.406;2023-06-19T10:06:43;8.55;;;7.68;;
71821;SDS011;64096;52.548;13.406;2023-06-19T10:09:10;8.57;;;7.75;;
71821;SDS011;64096;52.548;13.406;2023-06-19T10:11:49;9.20;;;8.30;;
71821;SDS011;64096;52.548;13.406;2023-06-19T10:14:22;10.65;;;9.73;;
71821;SDS011;64096;52.548;13.406;2023-06-19T10:16:49;10.55;;;9.45;;
71821;SDS011;64096;52.548;13.406;2023-06-19T10:19:16;11.43;;;10.43;;
71821;SDS011;64096;52.548;13.406;2023-06-19T10:21:46;10.70;;;9.60;;
71821;SDS011;64096;52.548;13.406;2023-06-19T10:24:17;10.20;;;9.20;;
71821;SDS011;64096;52.548;13.406;2023-06-19T10:26:55;10.70;;;9.70;;
71821;SDS011;64096;52.548;13.406;2023-06-19T10:29:21;10.52;;;9.52;;
71821;SDS011;64096;52.548;13.406;2023-06-19T10:31:47;11.27;;;10.18;;
71821;SDS011;64096;52.548;13.406;2023-06-19T10:34:14;12.10;;;10.68;;
71821;SDS011;64096;52.548;13.406;2023-06-19T10:36:40;10.85;;;9.75;;
71821;SDS011;64096;52.548;13.406;2023-06-19T10:39:06;10.15;;;9.25;;
71821;SDS011;64096;52.548;13.406;2023-06-19T10:41:33;10.27;;;9.32;;
71821;SDS011;64096;52.548;13.406;2023-06-19T10:44:00;10.68;;;9.63;;
71821;SDS011;64096;52.548;13.406;2023-06-19T10:46:29;11.73;;;10.52;;
71821;SDS011;64096;52.548;13.406;2023-06-19T10:48:56;10.75;;;9.65;;
71821;SDS011;64096;52.548;13.406;2023-06-19T10:51:26;10.77;;;9.63;;
71821;SDS011;64096;52.548;13.406;2023-06-19T10:53:56;10.15;;;9.18;;
71821;SDS011;64096;52.548;13.406;2023-06-19T10:56:23;10.27;;;9.27;;
71821;SDS011;64096;52.548;13.406;2023-06-19T10:59:02;10.82;;;9.73;;
71821;SDS011;64096;52.548;13.406;2023-06-19T11:01:38;10.27;;;9.38;;
71821;SDS011;64096;52.548;13.406;2023-06-19T11:04:05;10.15;;;9.13;;
71821;SDS011;64096;52.548;13.406;2023-06-19T11:06:31;10.40;;;9.40;;
71821;SDS011;64096;52.548;13.406;2023-06-19T11:08:58;11.40;;;10.27;;
71821;SDS011;64096;52.548;13.406;2023-06-19T11:11:34;11.40;;;10.30;;
71821;SDS011;64096;52.548;13.406;2023-06-19T11:14:00;10.90;;;9.77;;
71821;SDS011;64096;52.548;13.406;2023-06-19T11:16:26;10.43;;;9.43;;
71821;SDS011;64096;52.548;13.406;2023-06-19T11:18:59;10.80;;;9.70;;
71821;SDS011;64096;52.548;13.406;2023-06-19T11:21:29;9.63;;;8.73;;
71821;SDS011;64096;52.548;13.406;2023-06-19T11:23:57;10.60;;;9.60;;
71821;SDS011;64096;52.548;13.406;2023-06-19T11:26:24;9.55;;;8.65;;
71821;SDS011;64096;52.548;13.406;2023-06-19T11:28:50;10.68;;;9.68;;
71821;SDS011;64096;52.548;13.406;2023-06-19T11:31:16;10.23;;;9.27;;
71821;SDS011;64096;52.548;13.406;2023-06-19T11:33:43;9.40;;;8.50;;
71821;SDS011;64096;52.548;13.406;2023-06-19T11:36:09;10.60;;;9.55;;
71821;SDS011;64096;52.548;13.406;2023-06-19T11:38:35;9.77;;;8.80;;
71821;SDS011;64096;52.548;13.406;2023-06-19T11:41:01;9.45;;;8.55;;
71821;SDS011;64096;52.548;13.406;2023-06-19T11:43:30;8.85;;;7.95;;
71821;SDS011;64096;52.548;13.406;2023-06-19T11:46:03;10.00;;;9.00;;
71821;SDS011;64096;52.548;13.406;2023-06-19T11:48:30;9.98;;;8.95;;
71821;SDS011;64096;52.548;13.406;2023-06-19T11:50:56;9.43;;;8.55;;
71821;SDS011;64096;52.548;13.406;2023-06-19T11:53:22;10.00;;;9.02;;
71821;SDS011;64096;52.548;13.406;2023-06-19T11:55:49;8.88;;;8.07;;
71821;SDS011;64096;52.548;13.406;2023-06-19T11:58:15;9.73;;;8.73;;
71821;SDS011;64096;52.548;13.406;2023-06-19T12:00:42;9.85;;;8.95;;
71821;SDS011;64096;52.548;13.406;2023-06-19T12:03:08;9.13;;;8.23;;
71821;SDS011;64096;52.548;13.406;2023-06-19T12:05:35;8.30;;;7.50;;
71821;SDS011;64096;52.548;13.406;2023-06-19T12:08:01;8.80;;;8.00;;
71821;SDS011;64096;52.548;13.406;2023-06-19T12:10:30;8.48;;;7.68;;
71821;SDS011;64096;52.548;13.406;2023-06-19T12:12:56;8.68;;;7.88;;
71821;SDS011;64096;52.548;13.406;2023-06-19T12:15:23;8.27;;;7.47;;
71821;SDS011;64096;52.548;13.406;2023-06-19T12:17:50;9.43;;;8.45;;
71821;SDS011;64096;52.548;13.406;2023-06-19T12:20:17;8.40;;;7.70;;
71821;SDS011;64096;52.548;13.406;2023-06-19T12:22:43;8.30;;;7.50;;
71821;SDS011;64096;52.548;13.406;2023-06-19T12:25:09;8.20;;;7.40;;
71821;SDS011;64096;52.548;13.406;2023-06-19T12:27:36;7.22;;;6.53;;
71821;SDS011;64096;52.548;13.406;2023-06-19T12:30:02;8.65;;;7.75;;
71821;SDS011;64096;52.548;13.406;2023-06-19T12:32:28;8.00;;;7.25;;
71821;SDS011;64096;52.548;13.406;2023-06-19T12:34:54;7.88;;;7.07;;
71821;SDS011;64096;52.548;13.406;2023-06-19T12:37:20;8.48;;;7.53;;
71821;SDS011;64096;52.548;13.406;2023-06-19T12:39:47;7.72;;;7.03;;
71821;SDS011;64096;52.548;13.406;2023-06-19T12:42:13;10.00;;;7.72;;
71821;SDS011;64096;52.548;13.406;2023-06-19T12:44:40;8.00;;;7.20;;
71821;SDS011;64096;52.548;13.406;2023-06-19T12:47:06;8.18;;;7.43;;
71821;SDS011;64096;52.548;13.406;2023-06-19T12:49:32;8.02;;;7.22;;
71821;SDS011;64096;52.548;13.406;2023-06-19T12:51:58;9.10;;;7.80;;
71821;SDS011;64096;52.548;13.406;2023-06-19T12:54:25;7.50;;;6.80;;
71821;SDS011;64096;52.548;13.406;2023-06-19T12:56:52;8.07;;;7.22;;
71821;SDS011;64096;52.548;13.406;2023-06-19T12:59:18;7.38;;;6.68;;
71821;SDS011;64096;52.548;13.406;2023-06-19T13:01:44;6.93;;;6.22;;
71821;SDS011;64096;52.548;13.406;2023-06-19T13:04:11;7.63;;;6.78;;
71821;SDS011;64096;52.548;13.406;2023-06-19T13:06:37;7.78;;;7.07;;
71821;SDS011;64096;52.548;13.406;2023-06-19T13:09:05;7.65;;;6.95;;
71821;SDS011;64096;52.548;13.406;2023-06-19T13:11:32;8.05;;;7.25;;
71821;SDS011;64096;52.548;13.406;2023-06-19T13:14:01;8.52;;;7.72;;
71821;SDS011;64096;52.548;13.406;2023-06-19T13:16:27;7.88;;;7.07;;
71821;SDS011;64096;52.548;13.406;2023-06-19T13:18:53;8.93;;;8.02;;
71821;SDS011;64096;52.548;13.406;2023-06-19T13:21:19;9.18;;;8.20;;
71821;SDS011;64096;52.548;13.406;2023-06-19T13:23:45;8.20;;;7.40;;
71821;SDS011;64096;52.548;13.406;2023-06-19T13:26:14;9.25;;;7.82;;
71821;SDS011;64096;52.548;13.406;2023-06-19T13:28:40;8.02;;;7.32;;
71821;SDS011;64096;52.548;13.406;2023-06-19T13:31:06;8.38;;;7.57;;
71821;SDS011;64096;52.548;13.406;2023-06-19T13:33:32;9.63;;;8.73;;
71821;SDS011;64096;52.548;13.406;2023-06-19T13:35:58;8.75;;;7.88;;
71821;SDS011;64096;52.548;13.406;2023-06-19T13:38:24;8.35;;;7.15;;
71821;SDS011;64096;52.548;13.406;2023-06-19T13:40:50;10.00;;;7.43;;
71821;SDS011;64096;52.548;13.406;2023-06-19T13:43:16;7.60;;;6.85;;
71821;SDS011;64096;52.548;13.406;2023-06-19T13:45:43;8.57;;;7.78;;
71821;SDS011;64096;52.548;13.406;2023-06-19T13:48:09;7.80;;;7.00;;
71821;SDS011;64096;52.548;13.406;2023-06-19T13:50:35;7.60;;;6.68;;
71821;SDS011;64096;52.548;13.406;2023-06-19T13:53:01;8.82;;;7.97;;
71821;SDS011;64096;52.548;13.406;2023-06-19T13:55:27;8.20;;;7.40;;
71821;SDS011;64096;52.548;13.406;2023-06-19T13:57:53;9.10;;;8.23;;
